Flight Track Log - Related Links

Times and Time Zones

All times are in EST time to prevent confusion due to time zone crossing. See the DAL1079 flight status page for this flight to view local times or setup timezone preferences in your user account.

Time Position Orientation Groundspeed Altitude Reporting Facility
EST Latitude Longitude Course Direction KTS MPH feet Rate Location/Type
Wed 07:12:45 PM 33.6475 -84.4706 North 445 512 2,700  Level Atlanta Center
Wed 07:13:55 PM 33.6833 -84.5667 294° West 276 318 6,700 2,600 Climbing Atlanta TRACON
Wed 07:15:45 PM 33.8181 -84.5689 359° North 284 327 10,500 1,694 Climbing Atlanta Center
Wed 07:16:45 PM 33.8747 -84.5042 43° Northeast 275 316 11,500 1,950 Climbing Atlanta Center
Wed 07:17:00 PM 34.0511 -83.9480 11° North  Level Estimated
Wed 07:17:45 PM 33.9525 -84.3944 49° Northeast 344 396 14,400  Level Atlanta Center
Wed 07:18:00 PM 34.1337 -83.8514 North  Level Estimated
Wed 07:18:45 PM 34.0442 -84.3647 15° North 352 405 17,000  Level Atlanta Center
Wed 07:19:45 PM 34.1656 -84.3225 16° North 371 427 19,300 2,350 Climbing Atlanta Center
Wed 07:20:45 PM 34.2719 -84.2878 15° North 401 461 21,700 2,100 Climbing Atlanta Center
Wed 07:21:45 PM 34.3869 -84.2578 12° North 409 471 23,500 1,950 Climbing Atlanta Center
Wed 07:22:45 PM 34.5036 -84.2303 11° North 422 486 25,600 1,900 Climbing Atlanta Center
Wed 07:23:45 PM 34.6206 -84.2028 11° North 422 486 27,300 2,100 Climbing Atlanta Center
Wed 07:24:45 PM 34.7333 -84.1803 North 421 484 29,800 2,000 Climbing Atlanta Center
Wed 07:25:45 PM 34.8481 -84.1528 11° North 421 484 31,300 1,400 Climbing Atlanta Center
Wed 07:26:45 PM 34.9650 -84.1250 11° North 421 484 32,600 850 Climbing Atlanta Center
Wed 07:27:45 PM 35.0797 -84.0972 11° North 421 484 33,000 200 Climbing Atlanta Center
Wed 07:28:45 PM 35.1925 -84.0567 16° North 415 478 33,000  Level Atlanta Center
Wed 07:29:45 PM 35.3011 -84.0108 19° North 415 478 33,000  Level Atlanta Center
Wed 07:30:45 PM 35.4075 -83.9650 19° North 410 472 33,000  Level Atlanta Center
Wed 07:31:45 PM 35.5181 -83.9189 19° North 405 466 33,000  Level Atlanta Center
Wed 07:32:45 PM 35.6242 -83.8728 19° North 405 466 33,000  Level Atlanta Center
Wed 07:33:45 PM 35.7328 -83.8289 18° North 405 466 33,000  Level Atlanta Center
Wed 07:34:45 PM 35.8411 -83.7825 19° North 405 466 33,000  Level Atlanta Center
Wed 07:35:45 PM 35.9494 -83.7361 19° North 405 466 33,000  Level Atlanta Center
Wed 07:36:45 PM 36.0578 -83.6869 20° North 405 466 33,000  Level Atlanta Center
Wed 07:37:45 PM 36.1681 -83.6375 20° North 405 466 33,000  Level Atlanta Center
Wed 07:38:45 PM 36.2764 -83.5906 19° North 410 472 33,000  Level Atlanta Center
Wed 07:39:45 PM 36.3828 -83.5436 20° North 410 472 33,000  Level Atlanta Center
Wed 07:41:11 PM 36.5303 -83.4764 20° North 414 476 33,000  Level Indianapolis Center
Wed 07:42:13 PM 36.6400 -83.4272 20° North 415 478 33,000  Level Indianapolis Center
Wed 07:43:15 PM 36.7672 -83.3694 20° North 414 476 33,000  Level Indianapolis Center
Wed 07:44:17 PM 36.8767 -83.3194 20° North 414 476 33,000  Level Indianapolis Center
Wed 07:45:19 PM 36.9858 -83.2700 20° North 412 474 33,000  Level Indianapolis Center
Wed 07:46:21 PM 37.0942 -83.2181 21° North 410 472 33,000  Level Indianapolis Center
Wed 07:47:23 PM 37.2036 -83.1672 20° North 416 479 33,000  Level Indianapolis Center
Wed 07:48:25 PM 37.3047 -83.1019 27° Northeast 405 466 33,000  Level Indianapolis Center
Wed 07:49:26 PM 37.3814 -82.9925 49° Northeast 412 474 33,000  Level Indianapolis Center
Wed 07:50:28 PM 37.4558 -82.8842 49° Northeast 407 468 33,000  Level Indianapolis Center
Wed 07:51:30 PM 37.5294 -82.7742 50° Northeast 411 473 33,000  Level Indianapolis Center
Wed 07:52:32 PM 37.6156 -82.6464 50° Northeast 408 470 33,000  Level Indianapolis Center
Wed 07:53:34 PM 37.6892 -82.5353 50° Northeast 410 472 33,000  Level Indianapolis Center
Wed 07:54:36 PM 37.7628 -82.4222 51° Northeast 413 475 33,000  Level Indianapolis Center
Wed 07:55:37 PM 37.8356 -82.3111 50° Northeast 411 473 33,000  Level Indianapolis Center
Wed 07:56:39 PM 37.9097 -82.2031 49° Northeast 406 467 33,000  Level Indianapolis Center
Wed 07:57:41 PM 37.9897 -82.0792 51° Northeast 409 471 33,000  Level Indianapolis Center
Wed 07:58:43 PM 38.0608 -81.9675 51° Northeast 408 470 33,000  Level Indianapolis Center
Wed 07:59:45 PM 38.1342 -81.8569 50° Northeast 408 470 33,000  Level Indianapolis Center
Wed 08:00:46 PM 38.2047 -81.7456 51° Northeast 407 468 33,000  Level Indianapolis Center
Wed 08:01:48 PM 38.2769 -81.6342 50° Northeast 408 470 33,000  Level Indianapolis Center
Wed 08:02:50 PM 38.3486 -81.5228 51° Northeast 407 468 33,000  Level Indianapolis Center
Wed 08:03:52 PM 38.4331 -81.3886 51° Northeast 407 468 33,000  Level Indianapolis Center
Wed 08:04:54 PM 38.5044 -81.2761 51° Northeast 411 473 33,000  Level Indianapolis Center
Wed 08:05:55 PM 38.5761 -81.1656 50° Northeast 408 470 33,000  Level Indianapolis Center
Wed 08:06:57 PM 38.6475 -81.0531 51° Northeast 409 471 33,000  Level Indianapolis Center
Wed 08:07:59 PM 38.7186 -80.9403 51° Northeast 408 470 33,000  Level Indianapolis Center
Wed 08:09:35 PM 38.8328 -80.7589 51° Northeast 408 470 33,000  Level Cleveland Center
Wed 08:10:37 PM 38.9044 -80.6456 51° Northeast 411 473 33,000  Level Cleveland Center
Wed 08:11:39 PM 38.9897 -80.5094 51° Northeast 408 470 33,000  Level Cleveland Center
Wed 08:12:31 PM 39.0472 -80.4144 52° Northeast 411 473 33,000  Level Indianapolis Center
Wed 08:13:33 PM 39.1189 -80.3000 51° Northeast 411 473 33,000  Level Indianapolis Center
Wed 08:14:34 PM 39.1889 -80.1842 52° Northeast 411 473 33,000  Level Indianapolis Center
Wed 08:15:36 PM 39.2600 -80.0697 51° Northeast 409 471 33,000  Level Indianapolis Center
Wed 08:16:38 PM 39.3311 -79.9533 52° Northeast 410 472 33,000  Level Indianapolis Center
Wed 08:17:40 PM 39.4022 -79.8378 51° Northeast 410 472 33,000  Level Indianapolis Center
Wed 08:18:41 PM 39.4872 -79.6967 52° Northeast 412 474 33,000  Level Indianapolis Center
Wed 08:19:56 PM 39.5697 -79.5675 50° Northeast 417 480 33,000  Level Cleveland Center
Wed 08:20:58 PM 39.6394 -79.4519 52° Northeast 411 473 33,000  Level Cleveland Center
Wed 08:22:00 PM 39.7244 -79.3100 52° Northeast 416 479 33,000  Level Cleveland Center
Wed 08:23:02 PM 39.7944 -79.1917 52° Northeast 418 481 33,000  Level Cleveland Center
Wed 08:24:04 PM 39.8650 -79.0758 52° Northeast 413 475 33,000  Level Cleveland Center
Wed 08:25:06 PM 39.9375 -78.9514 53° Northeast 413 475 33,000  Level Cleveland Center
Wed 08:26:08 PM 40.0075 -78.8350 52° Northeast 411 473 33,000  Level Cleveland Center
Wed 08:27:10 PM 40.0772 -78.7161 53° Northeast 414 476 33,000  Level Cleveland Center
Wed 08:28:13 PM 40.1597 -78.5767 52° Northeast 411 473 33,000  Level Cleveland Center
Wed 08:29:15 PM 40.2289 -78.4586 52° Northeast 410 472 33,000  Level Cleveland Center
Wed 08:30:17 PM 40.2986 -78.3400 52° Northeast 413 475 33,000  Level Cleveland Center
Wed 08:31:19 PM 40.3678 -78.2208 53° Northeast 414 476 33,000  Level Cleveland Center
Wed 08:32:08 PM 40.4247 -78.1194 54° Northeast 409 471 33,000  Level New York Center
Wed 08:33:08 PM 40.4967 -77.9986 52° Northeast 409 471 33,000  Level New York Center
Wed 08:34:39 PM 40.5958 -77.8283 52° Northeast 416 479 33,000  Level Boston Center
Wed 08:35:27 PM 40.6575 -77.7208 53° Northeast 414 476 33,000  Level Cleveland Center
Wed 08:36:08 PM 40.7108 -77.6242 54° Northeast 414 476 33,000  Level New York Center
Wed 08:37:08 PM 40.7803 -77.5050 52° Northeast 414 476 33,000  Level New York Center
Wed 08:38:08 PM 40.8497 -77.3828 53° Northeast 409 471 33,000  Level New York Center
Wed 08:39:08 PM 40.9169 -77.2603 54° Northeast 409 471 33,000  Level New York Center
Wed 08:40:08 PM 40.9839 -77.1372 54° Northeast 409 471 33,000  Level New York Center
Wed 08:41:08 PM 41.0528 -77.0172 53° Northeast 409 471 33,000  Level New York Center
Wed 08:42:08 PM 41.1219 -76.8939 53° Northeast 409 471 33,000  Level New York Center
Wed 08:43:08 PM 41.1908 -76.7678 54° Northeast 409 471 33,000  Level New York Center
Wed 08:44:08 PM 41.2592 -76.6497 52° Northeast 409 471 33,000  Level New York Center
Wed 08:45:48 PM 41.3664 -76.4542 54° Northeast 411 473 33,000  Level Boston Center
Wed 08:46:50 PM 41.4375 -76.3222 54° Northeast 420 483 33,000  Level Boston Center
Wed 08:47:51 PM 41.5064 -76.1939 54° Northeast 417 480 33,000  Level Boston Center
Wed 08:48:52 PM 41.5731 -76.0689 54° Northeast 413 475 33,000  Level Boston Center
Wed 08:49:53 PM 41.6408 -75.9436 54° Northeast 417 480 33,000  Level Boston Center
Wed 08:50:53 PM 41.7081 -75.8186 54° Northeast 415 478 33,000  Level Boston Center
Wed 08:51:54 PM 41.7742 -75.6925 55° Northeast 416 479 33,000  Level Boston Center
Wed 08:52:54 PM 41.8417 -75.5664 54° Northeast 417 480 33,000  Level Boston Center
Wed 08:53:55 PM 41.9075 -75.4386 55° Northeast 418 481 33,000  Level Boston Center
Wed 08:54:56 PM 41.9739 -75.3117 55° Northeast 416 479 33,000  Level Boston Center
Wed 08:55:58 PM 42.0408 -75.1861 54° Northeast 415 478 33,000  Level Boston Center
Wed 08:56:59 PM 42.1014 -75.0411 61° Northeast 417 480 33,000  Level Boston Center
Wed 08:57:59 PM 42.1425 -74.8892 70° East 431 496 33,000  Level Boston Center
Wed 08:59:00 PM 42.1819 -74.7381 71° East 431 496 33,000 -295 Level Boston Center
Wed 09:00:01 PM 42.2214 -74.5867 71° East 430 495 32,400 -1,574 Descending Boston Center
Wed 09:01:02 PM 42.2622 -74.4264 71° East 431 496 29,800 -1,672 Descending Boston Center
Wed 09:02:03 PM 42.3025 -74.2706 71° East 438 504 29,000 -645 Descending Boston Center
Wed 09:03:03 PM 42.3436 -74.1111 71° East 448 516 28,500 -793 Descending Boston Center
Wed 09:04:04 PM 42.3839 -73.9547 71° East 442 509 27,400 -1,180 Descending Boston Center
Wed 09:05:05 PM 42.4242 -73.7967 71° East 444 511 26,100 -1,230 Descending Boston Center
Wed 09:06:06 PM 42.4639 -73.6406 71° East 441 507 24,900 -1,289 Descending Boston Center
Wed 09:07:06 PM 42.5100 -73.4575 71° East 430 495 23,500 -1,400 Descending Boston Center
Wed 09:08:06 PM 42.5475 -73.3067 71° East 423 487 22,100 -1,426 Descending Boston Center
Wed 09:09:08 PM 42.5853 -73.1558 71° East 419 482 20,600 -1,426 Descending Boston Center
Wed 09:10:08 PM 42.6222 -73.0067 71° East 412 474 19,200 -1,366 Descending Boston Center
Wed 09:11:11 PM 42.6567 -72.8636 72° East 395 455 17,800 -2,146 Descending Boston Center
Wed 09:12:11 PM 42.6903 -72.7250 72° East 385 443 14,800 -2,182 Descending Boston Center
Wed 09:13:12 PM 42.7250 -72.5856 71° East 389 448 13,400 -1,279 Descending Boston Center
Wed 09:14:13 PM 42.7575 -72.4506 72° East 379 436 12,200 -1,131 Descending Boston Center
Wed 09:15:14 PM 42.7892 -72.3147 72° East 378 435 11,100 -992 Descending Boston Center
Wed 09:16:14 PM 42.8047 -72.1769 81° East 363 418 10,200 -1,041 Descending Boston Center
Wed 09:17:15 PM 42.8111 -72.0550 86° East 301 346 9,000 -1,475 Descending Boston Center
Wed 09:18:16 PM 42.8128 -71.9422 89° East 300 345 7,200 -1,707 Descending Boston Center
Wed 09:19:18 PM 42.8131 -71.8319 90° East 292 336 5,500 -1,512 Descending Boston Center
Wed 09:20:19 PM 42.8133 -71.7228 90° East 289 333 4,100 -1,240 Descending Boston Center
Wed 09:21:19 PM 42.8158 -71.6158 88° East 284 327 3,000 -545 Descending Boston Center
Wed 09:22:20 PM 42.8206 -71.5125 86° East 258 297 3,000 -250 Level Boston Center
Wed 09:23:19 PM 42.8233 -71.4319 87° East 217 250 2,500 -650 Descending Boston Center
Wed 09:24:20 PM 42.8481 -71.3806 57° Northeast 175 201 1,700 -639 Descending Boston Center
Wed 09:25:21 PM 42.8817 -71.4028 334° Northwest 136 157 1,200 -629 Descending Boston Center
Wed 09:26:24 PM 42.9178 -71.4236 337° Northwest 140 161 400 -762 Descending Boston Center

Login

Don't have an account? Register now (free) for customized features, flight alerts, and more!